PDT5863 KTLH-KCLT
Flight info
| Callsign | PDT5863 |
|---|---|
| Flight time | N/A |
| Altitude | 23000 |
| Route | DCT PZD DCT MCN DCT PONZE BANKR5 |
| Aircraft | E145/M-SDFGIRW/S |
Departure
| Time | 2026-04-16 23:07 |
|---|---|
| Airport | Tallahassee International Airport (KTLH) |
Arrival
| Time | N/A |
|---|---|
| Airport | Charlotte Douglas International Airport (KCLT) |
| Time | Latitude | Longitude | Altitude | Speed | Heading |
|---|---|---|---|---|---|
| 2026-04-16 22:45 | 30.39421 | -84.34632 | 67 ft | 0 kts | 40° |
| 2026-04-16 22:53 | 30.39424 | -84.34629 | 61 ft | 0 kts | 40° |
| 2026-04-16 22:54 | 30.39429 | -84.34625 | 63 ft | 0 kts | 39° |
| 2026-04-16 22:57 | 30.39421 | -84.34632 | 67 ft | 0 kts | 40° |
| 2026-04-16 22:59 | 30.39414 | -84.34640 | 64 ft | 3 kts | 40° |
| 2026-04-16 22:59 | 30.39381 | -84.34672 | 66 ft | 4 kts | 33° |
| 2026-04-16 22:59 | 30.39376 | -84.34675 | 66 ft | 1 kts | 17° |
| 2026-04-16 23:00 | 30.39372 | -84.34676 | 66 ft | 1 kts | 358° |
| 2026-04-16 23:00 | 30.39371 | -84.34676 | 66 ft | 0 kts | 352° |
| 2026-04-16 23:00 | 30.39372 | -84.34677 | 66 ft | 0 kts | 352° |
| 2026-04-16 23:01 | 30.39376 | -84.34677 | 60 ft | 1 kts | 343° |
| 2026-04-16 23:01 | 30.39386 | -84.34687 | 63 ft | 4 kts | 311° |
| 2026-04-16 23:01 | 30.39408 | -84.34726 | 60 ft | 8 kts | 298° |
| 2026-04-16 23:01 | 30.39414 | -84.34802 | 65 ft | 12 kts | 269° |
| 2026-04-16 23:02 | 30.39413 | -84.34914 | 63 ft | 16 kts | 269° |
| 2026-04-16 23:02 | 30.39411 | -84.35056 | 63 ft | 19 kts | 269° |
| 2026-04-16 23:02 | 30.39410 | -84.35206 | 64 ft | 19 kts | 269° |
| 2026-04-16 23:02 | 30.39410 | -84.35299 | 64 ft | 10 kts | 269° |
| 2026-04-16 23:03 | 30.39409 | -84.35384 | 64 ft | 11 kts | 269° |
| 2026-04-16 23:03 | 30.39408 | -84.35469 | 60 ft | 11 kts | 269° |
| 2026-04-16 23:03 | 30.39407 | -84.35551 | 65 ft | 10 kts | 269° |
| 2026-04-16 23:03 | 30.39407 | -84.35621 | 65 ft | 8 kts | 271° |
| 2026-04-16 23:04 | 30.39406 | -84.35673 | 65 ft | 5 kts | 269° |
| 2026-04-16 23:04 | 30.39406 | -84.35709 | 69 ft | 3 kts | 264° |
| 2026-04-16 23:04 | 30.39398 | -84.35730 | 68 ft | 3 kts | 234° |
| 2026-04-16 23:04 | 30.39373 | -84.35753 | 71 ft | 5 kts | 210° |
| 2026-04-16 23:05 | 30.39343 | -84.35776 | 72 ft | 4 kts | 239° |
| 2026-04-16 23:05 | 30.39335 | -84.35800 | 69 ft | 3 kts | 252° |
| 2026-04-16 23:05 | 30.39334 | -84.35805 | 68 ft | 0 kts | 268° |
| 2026-04-16 23:05 | 30.39335 | -84.35838 | 72 ft | 5 kts | 272° |
| 2026-04-16 23:06 | 30.39344 | -84.35876 | 65 ft | 5 kts | 314° |
| 2026-04-16 23:06 | 30.39381 | -84.35884 | 68 ft | 13 kts | 0° |
| 2026-04-16 23:06 | 30.39787 | -84.35884 | 63 ft | 110 kts | 360° |
| 2026-04-16 23:06 | 30.40865 | -84.35891 | 64 ft | 194 kts | 360° |
| 2026-04-16 23:07 | 30.42380 | -84.35905 | 558 ft | 220 kts | 358° |
| 2026-04-16 23:07 | 30.43974 | -84.35995 | 1526 ft | 243 kts | 355° |
| 2026-04-16 23:07 | 30.45737 | -84.35966 | 2829 ft | 273 kts | 4° |
| 2026-04-16 23:07 | 30.47714 | -84.35665 | 4220 ft | 303 kts | 16° |
| 2026-04-16 23:08 | 30.49689 | -84.34349 | 5206 ft | 356 kts | 38° |
| 2026-04-16 23:08 | 30.51496 | -84.32561 | 7913 ft | 323 kts | 39° |
| 2026-04-16 23:08 | 30.53138 | -84.30471 | 8848 ft | 361 kts | 69° |
| 2026-04-16 23:08 | 30.53127 | -84.28823 | 13818 ft | 85 kts | 154° |
| 2026-04-16 23:09 | 30.52980 | -84.28687 | 14954 ft | 90 kts | 143° |